createdAt,value
2022-11-09T00:01:05.360Z,2.10
2022-11-09T00:03:32.479Z,2.57
2022-11-09T00:06:01.090Z,1.93
2022-11-09T00:08:28.805Z,3.10
2022-11-09T00:11:01.766Z,3.20
2022-11-09T00:13:28.779Z,2.60
2022-11-09T00:16:00.195Z,2.10
2022-11-09T00:18:27.238Z,2.47
2022-11-09T00:20:54.789Z,2.90
2022-11-09T00:23:22.856Z,2.73
2022-11-09T00:25:50.204Z,3.27
2022-11-09T00:28:17.202Z,3.00
2022-11-09T00:30:44.244Z,3.03
2022-11-09T00:33:12.363Z,1.57
2022-11-09T00:35:43.343Z,1.83
2022-11-09T00:38:10.468Z,1.60
2022-11-09T00:40:38.649Z,1.63
2022-11-09T00:43:05.639Z,2.10
2022-11-09T00:45:32.657Z,1.53
2022-11-09T00:47:59.741Z,1.53
2022-11-09T00:50:26.842Z,2.10
2022-11-09T00:52:53.864Z,1.67
2022-11-09T00:55:24.479Z,1.30
2022-11-09T00:57:53.320Z,1.23
2022-11-09T01:00:24.157Z,2.27
2022-11-09T01:02:53.054Z,1.80
2022-11-09T01:05:20.580Z,1.70
2022-11-09T01:07:49.278Z,1.60
2022-11-09T01:10:16.280Z,1.40
2022-11-09T01:12:43.340Z,1.90
2022-11-09T01:15:10.670Z,1.33
2022-11-09T01:17:37.678Z,1.80
2022-11-09T01:20:05.164Z,1.40
2022-11-09T01:22:32.160Z,1.60
2022-11-09T01:24:59.213Z,1.60
2022-11-09T01:27:26.241Z,1.57
2022-11-09T01:29:53.255Z,2.30
2022-11-09T01:32:20.226Z,2.43
2022-11-09T01:34:47.211Z,1.20
2022-11-09T01:37:14.320Z,1.87
2022-11-09T01:39:41.331Z,2.30
2022-11-09T01:42:08.373Z,1.87
2022-11-09T01:44:38.500Z,2.23
2022-11-09T01:47:20.950Z,1.70
2022-11-09T01:50:00.218Z,3.30
2022-11-09T01:52:38.673Z,2.10
2022-11-09T01:55:18.454Z,1.50
2022-11-09T01:58:00.791Z,1.80
2022-11-09T02:00:29.266Z,1.40
2022-11-09T02:03:09.901Z,1.83
2022-11-09T02:05:41.220Z,1.83
2022-11-09T02:08:12.890Z,1.60
2022-11-09T02:10:53.175Z,1.80
2022-11-09T02:13:24.227Z,1.70
2022-11-09T02:15:51.911Z,3.40
2022-11-09T02:18:20.679Z,2.57
2022-11-09T02:20:51.663Z,2.30
2022-11-09T02:23:20.308Z,1.50
2022-11-09T02:25:54.667Z,2.40
2022-11-09T02:28:23.096Z,1.43
2022-11-09T02:30:54.575Z,1.90
2022-11-09T02:33:22.302Z,2.63
2022-11-09T02:35:49.873Z,2.33
2022-11-09T02:38:16.904Z,2.20
2022-11-09T02:40:49.275Z,2.93
2022-11-09T02:43:19.388Z,2.37
2022-11-09T02:45:46.714Z,2.80
2022-11-09T02:48:14.465Z,3.00
2022-11-09T02:50:41.668Z,2.23
2022-11-09T02:53:08.820Z,2.00
2022-11-09T02:55:39.198Z,2.00
2022-11-09T02:58:07.853Z,2.27
2022-11-09T03:00:35.912Z,2.60
2022-11-09T03:03:04.278Z,1.87
2022-11-09T03:05:31.405Z,1.87
2022-11-09T03:08:02.374Z,2.63
2022-11-09T03:10:31.947Z,3.13
2022-11-09T03:12:58.998Z,3.10
2022-11-09T03:15:26.098Z,2.80
2022-11-09T03:17:53.149Z,2.20
2022-11-09T03:20:21.800Z,2.57
2022-11-09T03:22:48.802Z,3.40
2022-11-09T03:25:16.292Z,2.47
2022-11-09T03:27:43.371Z,1.67
2022-11-09T03:30:12.777Z,2.87
2022-11-09T03:32:40.396Z,3.00
2022-11-09T03:35:08.709Z,2.80
2022-11-09T03:37:36.400Z,2.90
2022-11-09T03:40:04.556Z,2.50
2022-11-09T03:42:31.528Z,1.50
2022-11-09T03:44:58.506Z,2.53
2022-11-09T03:47:25.577Z,2.30
2022-11-09T03:49:52.575Z,3.13
2022-11-09T03:52:19.603Z,2.40
2022-11-09T03:54:46.615Z,1.87
2022-11-09T03:57:13.614Z,4.00
2022-11-09T03:59:40.577Z,2.63
2022-11-09T04:02:07.798Z,2.57
2022-11-09T04:04:34.850Z,2.73
2022-11-09T04:07:01.967Z,2.50
2022-11-09T04:09:29.113Z,2.47
2022-11-09T04:11:56.175Z,2.77
2022-11-09T04:14:23.259Z,2.83
2022-11-09T04:16:50.286Z,3.00
2022-11-09T04:19:17.342Z,4.17
2022-11-09T04:21:44.320Z,2.83
2022-11-09T04:24:11.344Z,3.40
2022-11-09T04:26:38.359Z,2.03
2022-11-09T04:29:05.529Z,3.73
2022-11-09T04:31:32.569Z,2.70
2022-11-09T04:33:59.581Z,2.73
2022-11-09T04:36:26.596Z,2.60
2022-11-09T04:38:53.607Z,3.07
2022-11-09T04:41:20.642Z,2.83
2022-11-09T04:43:47.814Z,2.53
2022-11-09T04:46:14.856Z,2.63
2022-11-09T04:48:41.863Z,2.93
2022-11-09T04:51:10.602Z,3.03
2022-11-09T04:53:39.073Z,2.63
2022-11-09T04:56:07.767Z,3.23
2022-11-09T04:58:35.134Z,2.93
2022-11-09T05:01:14.094Z,3.00
2022-11-09T05:03:42.103Z,2.63
2022-11-09T05:06:28.549Z,2.80
2022-11-09T05:08:56.122Z,4.27
2022-11-09T05:11:23.700Z,3.43
2022-11-09T05:13:53.888Z,3.83
2022-11-09T05:16:21.443Z,3.57
2022-11-09T05:18:49.050Z,2.80
2022-11-09T05:21:17.208Z,3.10
2022-11-09T05:23:59.179Z,2.87
2022-11-09T05:26:32.257Z,4.27
2022-11-09T05:29:02.219Z,4.10
2022-11-09T05:31:30.101Z,3.93
2022-11-09T05:33:57.833Z,3.60
2022-11-09T05:36:25.677Z,3.03
2022-11-09T05:38:52.821Z,3.33
2022-11-09T05:41:20.195Z,2.90
2022-11-09T05:43:47.655Z,3.53
2022-11-09T05:46:16.693Z,3.20
2022-11-09T05:48:45.033Z,4.90
2022-11-09T05:51:14.545Z,5.13
2022-11-09T05:53:46.415Z,3.77
2022-11-09T05:56:15.198Z,3.50
2022-11-09T05:58:42.571Z,3.07
2022-11-09T06:01:16.670Z,4.30
2022-11-09T06:03:44.421Z,5.70
2022-11-09T06:06:14.991Z,4.80
2022-11-09T06:08:42.705Z,4.93
2022-11-09T06:11:13.847Z,5.57
2022-11-09T06:13:43.995Z,5.93
2022-11-09T06:16:10.972Z,5.00
2022-11-09T06:18:38.120Z,6.30
2022-11-09T06:21:06.442Z,5.90
2022-11-09T06:23:34.529Z,4.57
2022-11-09T06:26:09.957Z,4.70
2022-11-09T06:28:41.826Z,4.60
2022-11-09T06:31:13.891Z,4.20
2022-11-09T06:33:41.226Z,5.07
2022-11-09T06:36:10.422Z,3.67
2022-11-09T06:38:37.440Z,3.73
2022-11-09T06:41:04.611Z,4.07
2022-11-09T06:43:31.725Z,4.10
2022-11-09T06:45:58.771Z,4.30
2022-11-09T06:48:25.834Z,3.70
2022-11-09T06:50:52.812Z,4.90
2022-11-09T06:53:20.200Z,4.17
2022-11-09T06:55:50.898Z,5.33
2022-11-09T06:58:19.798Z,4.90
2022-11-09T07:00:47.339Z,4.60
2022-11-09T07:03:17.180Z,4.27
2022-11-09T07:05:45.337Z,3.67
2022-11-09T07:08:12.966Z,4.70
2022-11-09T07:10:40.854Z,4.50
2022-11-09T07:13:09.037Z,4.50
2022-11-09T07:15:37.875Z,4.40
2022-11-09T07:18:10.089Z,4.40
2022-11-09T07:20:37.685Z,3.47
2022-11-09T07:23:04.823Z,4.37
2022-11-09T07:25:32.739Z,4.80
2022-11-09T07:28:07.622Z,3.97
2022-11-09T07:30:36.799Z,4.50
2022-11-09T07:33:10.130Z,4.13
2022-11-09T07:35:38.901Z,4.67
2022-11-09T07:38:05.977Z,4.07
2022-11-09T07:40:33.121Z,4.80
2022-11-09T07:43:01.907Z,4.87
2022-11-09T07:45:34.396Z,6.73
2022-11-09T07:48:05.647Z,6.23
2022-11-09T07:50:34.734Z,4.93
2022-11-09T07:53:03.010Z,5.10
2022-11-09T07:55:31.368Z,5.30
2022-11-09T07:58:01.306Z,4.73
2022-11-09T08:00:32.018Z,6.30
2022-11-09T08:02:59.166Z,6.33
2022-11-09T08:05:27.170Z,5.20
2022-11-09T08:08:13.621Z,5.90
2022-11-09T08:10:40.845Z,4.40
2022-11-09T08:13:14.553Z,5.83
2022-11-09T08:15:42.773Z,5.37
2022-11-09T08:18:19.451Z,4.13
2022-11-09T08:20:47.504Z,4.30
2022-11-09T08:23:17.825Z,5.60
2022-11-09T08:25:45.883Z,5.50
2022-11-09T08:28:15.293Z,4.53
2022-11-09T08:30:45.038Z,5.57
2022-11-09T08:33:13.733Z,5.90
2022-11-09T08:35:40.855Z,4.53
2022-11-09T08:38:08.006Z,4.33
2022-11-09T08:40:35.153Z,4.77
2022-11-09T08:43:05.982Z,5.03
2022-11-09T08:45:35.648Z,4.27
2022-11-09T08:48:03.655Z,5.20
2022-11-09T08:50:32.619Z,4.60
2022-11-09T08:53:01.440Z,5.10
2022-11-09T08:55:29.011Z,4.80
2022-11-09T08:58:02.089Z,3.53
2022-11-09T09:00:29.745Z,2.90
2022-11-09T09:02:56.838Z,4.20
2022-11-09T09:05:24.090Z,4.47
2022-11-09T09:07:51.176Z,5.07
2022-11-09T09:10:18.344Z,5.90
2022-11-09T09:12:45.484Z,4.90
2022-11-09T09:15:12.726Z,5.77
2022-11-09T09:17:39.720Z,6.00
2022-11-09T09:20:07.268Z,4.90
2022-11-09T09:22:34.743Z,3.70
2022-11-09T09:25:02.698Z,4.10
2022-11-09T09:27:29.954Z,4.00
2022-11-09T09:29:57.866Z,4.97
2022-11-09T09:32:25.673Z,4.23
2022-11-09T09:34:53.135Z,4.60
2022-11-09T09:37:20.173Z,4.00
2022-11-09T09:39:47.273Z,4.00
2022-11-09T09:42:28.289Z,4.13
2022-11-09T09:45:19.764Z,4.27
2022-11-09T09:48:05.751Z,3.43
2022-11-09T09:51:01.391Z,3.90
2022-11-09T09:53:49.602Z,3.27
2022-11-09T09:56:28.060Z,3.20
2022-11-09T09:59:19.619Z,3.77
2022-11-09T10:01:48.568Z,2.73
2022-11-09T10:04:23.618Z,3.10
2022-11-09T10:07:03.884Z,2.57
2022-11-09T10:10:17.065Z,2.70
2022-11-09T10:13:12.993Z,2.43
2022-11-09T10:16:09.082Z,2.23
2022-11-09T10:19:10.265Z,2.60
2022-11-09T10:21:42.983Z,2.67
2022-11-09T10:24:48.768Z,2.87
2022-11-09T10:27:45.465Z,3.20
2022-11-09T10:30:20.349Z,1.63
2022-11-09T10:33:07.322Z,2.13
2022-11-09T10:36:42.353Z,2.70
2022-11-09T10:39:15.185Z,2.27
2022-11-09T10:42:00.913Z,1.77
2022-11-09T10:44:46.765Z,2.63
2022-11-09T10:47:52.376Z,2.10
2022-11-09T10:50:52.401Z,1.93
2022-11-09T10:53:38.173Z,1.97
2022-11-09T10:56:23.642Z,2.00
2022-11-09T10:59:37.021Z,1.77
2022-11-09T11:02:25.592Z,1.80
2022-11-09T11:05:12.758Z,1.60
2022-11-09T11:08:03.234Z,2.50
2022-11-09T11:10:49.182Z,1.90
2022-11-09T11:13:34.896Z,1.83
2022-11-09T11:16:33.328Z,2.20
2022-11-09T11:19:45.325Z,2.70
2022-11-09T11:22:31.123Z,1.70
2022-11-09T11:25:22.866Z,2.23
2022-11-09T11:28:42.666Z,2.00
2022-11-09T11:31:28.656Z,1.50
2022-11-09T11:34:32.081Z,1.77
2022-11-09T11:37:37.866Z,1.50
2022-11-09T11:40:34.801Z,2.00
2022-11-09T11:43:49.041Z,1.60
2022-11-09T11:47:09.738Z,1.63
2022-11-09T11:50:11.199Z,1.80
2022-11-09T11:53:21.569Z,1.57
2022-11-09T11:56:19.545Z,1.73
2022-11-09T11:59:59.145Z,1.53
2022-11-09T12:03:12.032Z,1.60
2022-11-09T12:07:06.297Z,1.13
2022-11-09T12:10:38.153Z,1.50
2022-11-09T12:13:44.563Z,1.40
2022-11-09T12:17:02.054Z,1.30
2022-11-09T12:20:22.886Z,1.27
2022-11-09T12:23:42.983Z,2.40
2022-11-09T12:26:43.416Z,1.57
2022-11-09T12:29:44.386Z,1.47
2022-11-09T12:33:02.207Z,1.63
2022-11-09T12:35:58.083Z,2.47
2022-11-09T12:39:04.081Z,1.70
2022-11-09T12:41:52.047Z,1.27
2022-11-09T12:44:52.715Z,0.93
2022-11-09T12:47:44.797Z,1.13
2022-11-09T12:50:32.435Z,1.80
2022-11-09T12:53:21.577Z,2.60
2022-11-09T12:56:35.323Z,1.10
2022-11-09T12:59:26.908Z,1.60
2022-11-09T13:02:27.417Z,0.90
2022-11-09T13:05:33.008Z,1.40
2022-11-09T13:08:29.192Z,1.10
2022-11-09T13:11:21.635Z,0.70
2022-11-09T13:14:22.398Z,0.60
2022-11-09T13:17:26.607Z,1.30
2022-11-09T13:24:03.469Z,0.70
2022-11-09T13:26:49.906Z,0.70
2022-11-09T13:29:52.298Z,1.03
2022-11-09T13:33:08.135Z,0.90
2022-11-09T13:35:53.539Z,1.17
2022-11-09T13:38:39.302Z,1.27
2022-11-09T13:41:31.924Z,0.80
2022-11-09T13:44:32.809Z,0.90
2022-11-09T13:47:34.225Z,0.87
2022-11-09T13:50:23.784Z,1.00
2022-11-09T13:53:37.008Z,1.00
2022-11-09T13:56:37.921Z,1.30
2022-11-09T13:59:28.218Z,1.00
2022-11-09T14:02:26.841Z,0.93
2022-11-09T14:05:32.498Z,1.60
2022-11-09T14:08:29.192Z,1.90
2022-11-09T14:11:49.206Z,4.00
2022-11-09T14:15:03.916Z,1.37
2022-11-09T14:18:12.527Z,0.60
2022-11-09T14:21:38.317Z,19.50
2022-11-09T14:24:38.137Z,4.53
2022-11-09T14:27:24.102Z,2.23
2022-11-09T14:30:25.975Z,4.60
2022-11-09T14:33:34.100Z,3.23
2022-11-09T14:36:20.288Z,1.33
2022-11-09T14:39:34.566Z,1.60
2022-11-09T14:42:23.733Z,1.40
2022-11-09T14:45:16.136Z,2.50
2022-11-09T14:48:02.504Z,3.37
2022-11-09T14:50:50.189Z,2.40
2022-11-09T14:53:38.850Z,0.90
2022-11-09T14:56:25.535Z,0.90
2022-11-09T14:59:19.955Z,1.50
2022-11-09T15:02:14.539Z,1.93
2022-11-09T15:05:07.146Z,1.23
2022-11-09T15:07:53.129Z,1.20
2022-11-09T15:10:39.570Z,1.50
2022-11-09T15:13:41.601Z,0.90
2022-11-09T15:16:31.415Z,1.70
2022-11-09T15:19:39.498Z,1.00
2022-11-09T15:22:40.248Z,1.23
2022-11-09T15:25:52.301Z,1.00
2022-11-09T15:28:47.011Z,0.90
2022-11-09T15:31:32.794Z,0.80
2022-11-09T15:34:27.026Z,1.93
2022-11-09T15:37:49.214Z,1.50
2022-11-09T15:40:34.657Z,0.80
2022-11-09T15:43:20.221Z,0.90
2022-11-09T15:46:06.831Z,0.90
2022-11-09T15:48:52.302Z,1.70
2022-11-09T15:51:37.664Z,0.70
2022-11-09T15:54:24.439Z,1.67
2022-11-09T15:57:18.800Z,1.77
2022-11-09T16:00:12.089Z,1.77
2022-11-09T16:03:00.033Z,1.67
2022-11-09T16:05:46.029Z,1.80
2022-11-09T16:08:31.753Z,1.33
2022-11-09T16:11:17.968Z,1.53
2022-11-09T16:14:04.447Z,1.50
2022-11-09T16:16:50.080Z,1.50
2022-11-09T16:19:35.699Z,1.00
2022-11-09T16:22:21.205Z,1.70
2022-11-09T16:25:07.294Z,1.47
2022-11-09T16:27:54.331Z,1.90
2022-11-09T16:30:45.516Z,1.80
2022-11-09T16:33:32.644Z,1.20
2022-11-09T16:36:23.942Z,1.40
2022-11-09T16:39:17.226Z,1.90
2022-11-09T16:42:09.884Z,1.40
2022-11-09T16:45:03.706Z,1.77
2022-11-09T16:47:56.739Z,1.27
2022-11-09T16:50:43.793Z,1.00
2022-11-09T16:53:29.981Z,1.60
2022-11-09T16:56:15.527Z,0.90
2022-11-09T16:59:01.630Z,0.80
2022-11-09T17:01:58.516Z,0.87
2022-11-09T17:04:44.204Z,0.90
2022-11-09T17:07:29.795Z,1.57
2022-11-09T17:10:15.823Z,3.67
2022-11-09T17:13:01.842Z,3.63
2022-11-09T17:15:51.804Z,2.67
2022-11-09T17:18:38.104Z,2.80
2022-11-09T17:21:27.231Z,2.70
2022-11-09T17:24:14.134Z,1.60
2022-11-09T17:27:00.020Z,2.13
2022-11-09T17:29:45.507Z,1.77
2022-11-09T17:32:31.080Z,2.00
2022-11-09T17:35:17.045Z,1.37
2022-11-09T17:38:03.727Z,1.03
2022-11-09T17:40:49.423Z,0.90
2022-11-09T17:43:38.311Z,1.40
2022-11-09T17:46:24.398Z,2.03
2022-11-09T17:49:10.698Z,1.40
2022-11-09T17:51:57.728Z,1.50
2022-11-09T17:54:43.298Z,3.43
2022-11-09T17:57:28.857Z,1.77
2022-11-09T18:00:15.131Z,1.50
2022-11-09T18:03:00.949Z,1.57
2022-11-09T18:05:46.811Z,1.00
2022-11-09T18:08:32.460Z,1.70
2022-11-09T18:11:18.398Z,1.20
2022-11-09T18:14:04.507Z,1.40
2022-11-09T18:16:50.171Z,1.93
2022-11-09T18:19:35.739Z,1.20
2022-11-09T18:22:21.230Z,1.40
2022-11-09T18:25:07.285Z,1.60
2022-11-09T18:27:52.876Z,2.07
2022-11-09T18:30:41.730Z,1.80
2022-11-09T18:33:28.925Z,1.10
2022-11-09T18:36:18.582Z,2.10
2022-11-09T18:39:04.737Z,2.40
2022-11-09T18:41:52.175Z,2.27
2022-11-09T18:44:37.640Z,2.10
2022-11-09T18:47:23.784Z,1.53
2022-11-09T18:50:09.907Z,2.10
2022-11-09T18:52:55.697Z,1.47
2022-11-09T18:55:41.240Z,1.73
2022-11-09T18:58:27.118Z,2.80
2022-11-09T19:01:13.206Z,2.03
2022-11-09T19:04:01.844Z,1.90
2022-11-09T19:06:47.710Z,2.57
2022-11-09T19:09:38.565Z,2.80
2022-11-09T19:12:24.379Z,2.13
2022-11-09T19:15:10.426Z,2.13
2022-11-09T19:17:55.991Z,2.27
2022-11-09T19:20:41.652Z,2.60
2022-11-09T19:23:33.013Z,2.13
2022-11-09T19:26:22.062Z,4.57
2022-11-09T19:29:12.485Z,3.00
2022-11-09T19:31:58.227Z,3.90
2022-11-09T19:34:46.169Z,2.27
2022-11-09T19:37:32.070Z,2.97
2022-11-09T19:40:17.637Z,2.87
2022-11-09T19:43:03.324Z,2.60
2022-11-09T19:45:48.846Z,3.53
2022-11-09T19:48:35.602Z,4.27
2022-11-09T19:51:21.134Z,3.60
2022-11-09T19:54:07.765Z,3.30
2022-11-09T19:56:53.422Z,3.83
2022-11-09T19:59:39.233Z,3.13
2022-11-09T20:02:25.158Z,2.80
2022-11-09T20:05:10.751Z,3.40
2022-11-09T20:07:56.194Z,1.97
2022-11-09T20:10:41.674Z,2.10
2022-11-09T20:13:27.343Z,2.10
2022-11-09T20:16:12.808Z,1.60
2022-11-09T20:18:58.844Z,2.30
2022-11-09T20:21:44.967Z,2.53
2022-11-09T20:24:30.570Z,1.63
2022-11-09T20:27:16.164Z,1.97
2022-11-09T20:30:02.238Z,4.50
2022-11-09T20:32:47.972Z,5.00
2022-11-09T20:35:34.002Z,7.30
2022-11-09T20:38:19.858Z,6.83
2022-11-09T20:41:08.217Z,4.80
2022-11-09T20:43:54.019Z,3.13
2022-11-09T20:46:39.775Z,2.60
2022-11-09T20:49:25.406Z,2.50
2022-11-09T20:52:10.812Z,2.43
2022-11-09T20:54:56.524Z,2.37
2022-11-09T20:57:42.041Z,2.27
2022-11-09T21:00:27.844Z,1.97
2022-11-09T21:03:13.803Z,1.60
2022-11-09T21:06:01.796Z,2.20
2022-11-09T21:08:52.536Z,1.70
2022-11-09T21:12:01.012Z,2.10
2022-11-09T21:14:46.891Z,1.70
2022-11-09T21:17:32.636Z,1.80
2022-11-09T21:20:18.410Z,2.17
2022-11-09T21:23:13.353Z,1.60
2022-11-09T21:26:18.784Z,1.70
2022-11-09T21:29:23.463Z,1.90
2022-11-09T21:32:11.647Z,2.27
2022-11-09T21:34:57.345Z,2.60
2022-11-09T21:37:43.105Z,2.17
2022-11-09T21:40:29.025Z,1.53
2022-11-09T21:43:16.117Z,2.20
2022-11-09T21:46:01.681Z,2.03
2022-11-09T21:48:47.437Z,1.60
2022-11-09T21:51:35.473Z,1.93
2022-11-09T21:54:22.060Z,1.33
2022-11-09T21:57:07.637Z,1.33
2022-11-09T21:59:53.286Z,1.67
2022-11-09T22:02:38.809Z,0.90
2022-11-09T22:05:24.384Z,0.90
2022-11-09T22:08:10.047Z,1.60
2022-11-09T22:11:15.995Z,2.23
2022-11-09T22:14:20.112Z,1.37
2022-11-09T22:17:10.333Z,1.63
2022-11-09T22:20:14.110Z,1.00
2022-11-09T22:22:59.597Z,0.97
2022-11-09T22:25:47.969Z,1.10
2022-11-09T22:28:33.779Z,2.17
2022-11-09T22:31:19.654Z,1.60
2022-11-09T22:34:05.251Z,0.80
2022-11-09T22:36:50.812Z,1.17
2022-11-09T22:39:36.392Z,1.10
2022-11-09T22:42:22.054Z,1.17
2022-11-09T22:45:08.075Z,1.47
2022-11-09T22:47:53.921Z,1.07
2022-11-09T22:50:39.427Z,1.57
2022-11-09T22:53:25.097Z,1.30
2022-11-09T22:56:11.491Z,1.30
2022-11-09T22:58:57.360Z,1.03
2022-11-09T23:01:43.369Z,1.73
2022-11-09T23:04:28.983Z,1.27
2022-11-09T23:07:14.484Z,1.37
2022-11-09T23:09:59.977Z,0.83
2022-11-09T23:12:45.514Z,1.40
2022-11-09T23:15:31.355Z,0.97
2022-11-09T23:18:35.598Z,1.80
2022-11-09T23:21:36.140Z,0.73
2022-11-09T23:24:42.143Z,0.80
2022-11-09T23:27:28.344Z,1.40
2022-11-09T23:30:14.212Z,0.90
2022-11-09T23:33:03.104Z,1.10
2022-11-09T23:35:48.812Z,1.00
2022-11-09T23:38:37.745Z,1.13
2022-11-09T23:41:23.559Z,1.03
2022-11-09T23:44:09.270Z,1.03
2022-11-09T23:46:54.773Z,0.87
2022-11-09T23:49:40.393Z,1.03
2022-11-09T23:52:25.828Z,0.77
2022-11-09T23:55:11.520Z,0.87
2022-11-09T23:58:00.777Z,0.90
